createdAt,value
2018-06-07T00:01:10.146Z,94.00
2018-06-07T00:03:44.212Z,94.60
2018-06-07T00:06:18.309Z,95.50
2018-06-07T00:08:53.139Z,95.80
2018-06-07T00:11:27.197Z,95.80
2018-06-07T00:14:01.266Z,96.70
2018-06-07T00:16:35.363Z,96.40
2018-06-07T00:19:09.495Z,97.70
2018-06-07T00:21:43.619Z,97.80
2018-06-07T00:24:17.704Z,97.90
2018-06-07T00:26:51.878Z,99.20
2018-06-07T00:29:25.964Z,99.10
2018-06-07T00:31:59.930Z,99.30
2018-06-07T00:34:34.050Z,99.90
2018-06-07T00:37:08.050Z,99.90
2018-06-07T00:39:42.208Z,99.90
2018-06-07T00:42:16.393Z,99.90
2018-06-07T00:44:51.199Z,99.90
2018-06-07T00:47:25.225Z,99.90
2018-06-07T00:49:59.186Z,99.90
2018-06-07T00:52:33.150Z,99.90
2018-06-07T00:55:07.191Z,99.90
2018-06-07T00:57:41.322Z,99.90
2018-06-07T01:00:16.229Z,99.90
2018-06-07T01:02:51.240Z,99.90
2018-06-07T01:05:25.991Z,99.90
2018-06-07T01:08:00.099Z,99.90
2018-06-07T01:10:34.005Z,99.90
2018-06-07T01:13:08.866Z,99.90
2018-06-07T01:15:42.864Z,99.90
2018-06-07T01:18:17.051Z,99.90
2018-06-07T01:20:51.213Z,99.90
2018-06-07T01:23:25.194Z,99.90
2018-06-07T01:25:59.261Z,99.90
2018-06-07T01:28:33.195Z,99.90
2018-06-07T01:31:07.199Z,99.90
2018-06-07T01:33:41.362Z,99.90
2018-06-07T01:36:15.535Z,99.90
2018-06-07T01:38:50.495Z,99.90
2018-06-07T01:41:24.611Z,99.90
2018-06-07T01:43:58.738Z,99.90
2018-06-07T01:46:32.896Z,99.90
2018-06-07T01:49:07.002Z,99.90
2018-06-07T01:51:40.957Z,99.90
2018-06-07T01:54:15.071Z,99.90
2018-06-07T01:56:49.187Z,99.90
2018-06-07T01:59:24.002Z,99.90
2018-06-07T02:01:58.138Z,99.90
2018-06-07T02:04:32.232Z,99.90
2018-06-07T02:07:06.389Z,99.90
2018-06-07T02:09:40.550Z,99.90
2018-06-07T02:12:15.466Z,99.90
2018-06-07T02:14:49.518Z,99.90
2018-06-07T02:17:23.646Z,99.90
2018-06-07T02:19:57.619Z,99.90
2018-06-07T02:22:31.729Z,99.90
2018-06-07T02:25:05.771Z,99.90
2018-06-07T02:27:39.895Z,99.90
2018-06-07T02:30:14.579Z,99.90
2018-06-07T02:32:48.716Z,99.90
2018-06-07T02:35:22.853Z,99.90
2018-06-07T02:37:57.031Z,99.90
2018-06-07T02:40:30.942Z,99.90
2018-06-07T02:43:05.717Z,99.90
2018-06-07T02:45:39.784Z,99.90
2018-06-07T02:48:13.777Z,99.90
2018-06-07T02:50:47.661Z,99.90
2018-06-07T02:53:21.689Z,99.90
2018-06-07T02:55:55.794Z,99.90
2018-06-07T02:58:29.824Z,99.90
2018-06-07T03:01:03.908Z,99.90
2018-06-07T03:03:38.026Z,99.90
2018-06-07T03:06:12.122Z,99.90
2018-06-07T03:08:46.152Z,99.90
2018-06-07T03:11:20.169Z,99.90
2018-06-07T03:13:54.232Z,99.90
2018-06-07T03:16:28.277Z,99.90
2018-06-07T03:19:02.350Z,99.90
2018-06-07T03:21:36.334Z,99.90
2018-06-07T03:24:10.376Z,99.90
2018-06-07T03:26:44.245Z,99.90
2018-06-07T03:29:18.360Z,99.90
2018-06-07T03:31:52.369Z,99.90
2018-06-07T03:34:26.456Z,99.90
2018-06-07T03:37:00.477Z,99.90
2018-06-07T03:39:34.565Z,99.90
2018-06-07T03:42:09.331Z,99.90
2018-06-07T03:44:43.221Z,99.90
2018-06-07T03:47:17.287Z,99.90
2018-06-07T03:49:51.977Z,99.90
2018-06-07T03:52:25.921Z,99.90
2018-06-07T03:55:00.727Z,99.90
2018-06-07T03:57:35.432Z,99.90
2018-06-07T04:00:09.313Z,99.90
2018-06-07T04:02:43.290Z,99.90
2018-06-07T04:05:17.983Z,99.90
2018-06-07T04:07:52.675Z,99.90
2018-06-07T04:10:27.486Z,99.90
2018-06-07T04:13:01.631Z,99.90
2018-06-07T04:15:35.551Z,99.90
2018-06-07T04:18:09.615Z,99.90
2018-06-07T04:20:43.628Z,99.90
2018-06-07T04:23:17.580Z,99.90
2018-06-07T04:25:51.538Z,99.90
2018-06-07T04:28:25.498Z,99.90
2018-06-07T04:30:59.615Z,99.90
2018-06-07T04:33:33.673Z,99.90
2018-06-07T04:36:07.746Z,99.90
2018-06-07T04:38:41.939Z,99.90
2018-06-07T04:41:16.319Z,99.90
2018-06-07T04:43:50.544Z,99.90
2018-06-07T04:46:25.497Z,99.90
2018-06-07T04:48:59.601Z,99.90
2018-06-07T04:51:33.730Z,99.90
2018-06-07T04:54:07.704Z,99.90
2018-06-07T04:56:41.650Z,99.90
2018-06-07T04:59:15.738Z,99.90
2018-06-07T05:01:50.489Z,99.90
2018-06-07T05:04:24.558Z,99.90
2018-06-07T05:06:58.718Z,99.90
2018-06-07T05:09:32.750Z,99.90
2018-06-07T05:12:06.843Z,99.90
2018-06-07T05:14:40.923Z,99.90
2018-06-07T05:17:14.992Z,99.90
2018-06-07T05:19:49.915Z,99.90
2018-06-07T05:22:24.002Z,99.90
2018-06-07T05:24:58.153Z,99.90
2018-06-07T05:27:32.224Z,99.90
2018-06-07T05:30:06.335Z,99.90
2018-06-07T05:32:40.376Z,99.90
2018-06-07T05:35:14.496Z,99.90
2018-06-07T05:37:49.205Z,99.90
2018-06-07T05:40:23.313Z,99.90
2018-06-07T05:42:57.258Z,99.90
2018-06-07T05:45:31.252Z,99.90
2018-06-07T05:48:06.029Z,99.90
2018-06-07T05:50:40.081Z,99.90
2018-06-07T05:53:14.013Z,99.90
2018-06-07T05:55:47.874Z,99.90
2018-06-07T05:58:22.632Z,99.90
2018-06-07T06:00:56.757Z,99.90
2018-06-07T06:03:30.864Z,99.90
2018-06-07T06:06:05.782Z,99.90
2018-06-07T06:08:39.864Z,99.90
2018-06-07T06:11:14.778Z,99.90
2018-06-07T06:13:48.866Z,99.90
2018-06-07T06:16:22.886Z,99.90
2018-06-07T06:18:57.072Z,99.90
2018-06-07T06:21:31.161Z,99.90
2018-06-07T06:24:05.352Z,99.90
2018-06-07T06:26:39.473Z,99.90
2018-06-07T06:29:13.637Z,99.90
2018-06-07T06:31:48.558Z,99.90
2018-06-07T06:34:22.587Z,99.90
2018-06-07T06:36:56.553Z,99.90
2018-06-07T06:39:30.687Z,99.90
2018-06-07T06:42:04.861Z,99.90
2018-06-07T06:44:38.985Z,99.90
2018-06-07T06:47:13.162Z,99.90
2018-06-07T06:49:48.034Z,99.90
2018-06-07T06:52:22.079Z,99.90
2018-06-07T06:54:56.910Z,99.90
2018-06-07T06:57:31.134Z,99.90
2018-06-07T07:00:05.241Z,99.90
2018-06-07T07:02:39.362Z,99.90
2018-06-07T07:05:13.483Z,99.90
2018-06-07T07:07:47.657Z,99.90
2018-06-07T07:10:21.758Z,99.90
2018-06-07T07:12:55.826Z,99.90
2018-06-07T07:15:29.771Z,99.90
2018-06-07T07:18:03.936Z,99.90
2018-06-07T07:20:37.961Z,99.90
2018-06-07T07:23:12.788Z,99.90
2018-06-07T07:25:46.880Z,99.90
2018-06-07T07:28:20.773Z,99.90
2018-06-07T07:30:54.780Z,99.90
2018-06-07T07:33:29.414Z,99.90
2018-06-07T07:36:03.509Z,99.90
2018-06-07T07:38:37.564Z,99.90
2018-06-07T07:41:11.740Z,99.90
2018-06-07T07:43:45.866Z,99.90
2018-06-07T07:46:20.619Z,99.90
2018-06-07T07:48:54.925Z,99.90
2018-06-07T07:51:30.086Z,99.90
2018-06-07T07:54:05.234Z,99.90
2018-06-07T07:56:39.305Z,99.90
2018-06-07T07:59:13.454Z,99.90
2018-06-07T08:01:47.505Z,99.90
2018-06-07T08:04:21.884Z,99.90
2018-06-07T08:06:55.881Z,99.90
2018-06-07T08:09:29.961Z,99.90
2018-06-07T08:12:04.821Z,99.90
2018-06-07T08:14:39.174Z,99.90
2018-06-07T08:17:13.083Z,99.90
2018-06-07T08:19:47.575Z,99.90
2018-06-07T08:22:21.610Z,99.90
2018-06-07T08:24:55.808Z,99.90
2018-06-07T08:27:30.027Z,99.90
2018-06-07T08:30:04.029Z,99.90
2018-06-07T08:32:38.266Z,99.40
2018-06-07T08:35:12.339Z,99.90
2018-06-07T08:37:46.673Z,97.60
2018-06-07T08:40:20.841Z,99.90
2018-06-07T08:42:55.801Z,99.90
2018-06-07T08:45:30.121Z,99.90
2018-06-07T08:48:04.406Z,99.90
2018-06-07T08:50:38.494Z,99.30
2018-06-07T08:53:12.810Z,99.90
2018-06-07T08:55:47.066Z,99.30
2018-06-07T08:58:21.603Z,99.90
2018-06-07T09:00:55.648Z,99.70
2018-06-07T09:03:29.858Z,99.90
2018-06-07T09:06:03.971Z,99.90
2018-06-07T09:08:38.297Z,99.90
2018-06-07T09:11:13.143Z,99.90
2018-06-07T09:13:47.294Z,99.90
2018-06-07T09:16:22.245Z,98.60
2018-06-07T09:18:56.375Z,97.60
2018-06-07T09:21:31.565Z,97.60
2018-06-07T09:24:05.859Z,97.60
2018-06-07T09:26:39.832Z,99.80
2018-06-07T09:29:13.889Z,98.50
2018-06-07T09:31:47.950Z,99.10
2018-06-07T09:34:22.850Z,96.20
2018-06-07T09:36:57.994Z,98.40
2018-06-07T09:39:32.027Z,98.20
2018-06-07T09:42:06.142Z,97.80
2018-06-07T09:44:41.210Z,94.70
2018-06-07T09:47:16.349Z,95.30
2018-06-07T09:49:50.625Z,95.30
2018-06-07T09:52:24.756Z,95.90
2018-06-07T09:54:59.527Z,93.60
2018-06-07T09:57:33.798Z,94.50
2018-06-07T10:00:08.287Z,93.60
2018-06-07T10:02:42.656Z,93.80
2018-06-07T10:05:16.689Z,92.20
2018-06-07T10:07:51.045Z,91.80
2018-06-07T10:10:25.453Z,92.80
2018-06-07T10:13:01.821Z,92.00
2018-06-07T10:15:36.206Z,92.00
2018-06-07T10:18:11.009Z,89.20
2018-06-07T10:20:45.173Z,89.10
2018-06-07T10:23:19.102Z,91.20
2018-06-07T10:25:53.116Z,88.00
2018-06-07T10:28:27.810Z,84.90
2018-06-07T10:31:02.323Z,84.90
2018-06-07T10:33:36.332Z,83.30
2018-06-07T10:36:11.380Z,83.90
2018-06-07T10:38:46.220Z,84.00
2018-06-07T10:41:20.580Z,83.70
2018-06-07T10:43:54.858Z,85.60
2018-06-07T10:46:29.719Z,86.50
2018-06-07T10:49:04.038Z,86.40
2018-06-07T10:51:38.750Z,84.00
2018-06-07T10:54:13.013Z,85.20
2018-06-07T10:56:47.277Z,82.00
2018-06-07T10:59:21.522Z,83.50
2018-06-07T11:01:56.238Z,79.50
2018-06-07T11:04:30.894Z,79.50
2018-06-07T11:07:05.154Z,80.10
2018-06-07T11:09:39.230Z,79.70
2018-06-07T11:12:13.326Z,81.40
2018-06-07T11:14:47.917Z,78.90
2018-06-07T11:17:22.098Z,80.20
2018-06-07T11:19:57.102Z,79.30
2018-06-07T11:22:31.205Z,79.30
2018-06-07T11:25:05.850Z,80.50
2018-06-07T11:27:40.173Z,80.50
2018-06-07T11:30:14.489Z,76.30
2018-06-07T11:32:50.510Z,78.30
2018-06-07T11:35:25.490Z,76.80
2018-06-07T11:37:59.453Z,76.70
2018-06-07T11:40:33.603Z,75.80
2018-06-07T11:43:07.691Z,73.60
2018-06-07T11:45:41.751Z,78.70
2018-06-07T11:48:16.593Z,72.90
2018-06-07T11:50:50.764Z,72.80
2018-06-07T11:53:25.470Z,73.70
2018-06-07T11:55:59.606Z,73.70
2018-06-07T11:58:34.449Z,76.20
2018-06-07T12:01:08.489Z,76.30
2018-06-07T12:03:42.675Z,84.20
2018-06-07T12:06:16.810Z,82.70
2018-06-07T12:08:51.126Z,82.10
2018-06-07T12:11:25.029Z,82.30
2018-06-07T12:14:00.165Z,79.60
2018-06-07T12:16:34.190Z,79.60
2018-06-07T12:19:08.249Z,83.50
2018-06-07T12:21:42.869Z,85.50
2018-06-07T12:24:17.121Z,84.60
2018-06-07T12:26:51.054Z,84.90
2018-06-07T12:29:25.216Z,84.20
2018-06-07T12:31:59.134Z,83.20
2018-06-07T12:34:33.182Z,84.60
2018-06-07T12:37:07.138Z,80.30
2018-06-07T12:39:42.042Z,79.20
2018-06-07T12:42:16.945Z,81.00
2018-06-07T12:44:51.787Z,81.10
2018-06-07T12:47:26.834Z,81.90
2018-06-07T12:50:00.998Z,81.80
2018-06-07T12:52:35.069Z,82.50
2018-06-07T12:55:09.093Z,84.10
2018-06-07T12:57:43.239Z,81.90
2018-06-07T13:00:17.336Z,85.10
2018-06-07T13:02:51.393Z,84.70
2018-06-07T13:05:26.385Z,85.20
2018-06-07T13:08:00.506Z,84.00
2018-06-07T13:10:34.809Z,85.30
2018-06-07T13:13:09.958Z,84.00
2018-06-07T13:15:44.124Z,84.20
2018-06-07T13:18:18.317Z,82.50
2018-06-07T13:20:52.706Z,82.50
2018-06-07T13:23:27.223Z,82.20
2018-06-07T13:26:01.450Z,82.40
2018-06-07T13:28:36.577Z,81.90
2018-06-07T13:31:10.761Z,81.40
2018-06-07T13:33:44.941Z,76.10
2018-06-07T13:36:18.966Z,74.80
2018-06-07T13:38:53.011Z,77.20
2018-06-07T13:41:27.186Z,73.50
2018-06-07T13:44:02.142Z,72.80
2018-06-07T13:46:36.441Z,74.90
2018-06-07T13:49:11.507Z,68.50
2018-06-07T13:51:45.946Z,68.40
2018-06-07T13:54:20.821Z,72.20
2018-06-07T13:56:55.212Z,72.20
2018-06-07T13:59:30.151Z,72.90
2018-06-07T14:02:05.116Z,72.70
2018-06-07T14:04:39.264Z,72.20
2018-06-07T14:07:13.237Z,73.60
2018-06-07T14:09:47.501Z,74.20
2018-06-07T14:12:21.396Z,73.30
2018-06-07T14:14:55.764Z,72.80
2018-06-07T14:17:31.168Z,71.70
2018-06-07T14:20:05.705Z,71.70
2018-06-07T14:22:39.942Z,71.50
2018-06-07T14:25:14.710Z,69.90
2018-06-07T14:27:48.993Z,69.70
2018-06-07T14:30:23.341Z,66.00
2018-06-07T14:32:57.673Z,67.50
2018-06-07T14:35:31.862Z,66.70
2018-06-07T14:38:07.125Z,68.60
2018-06-07T14:40:41.345Z,68.50
2018-06-07T14:43:15.591Z,68.40
2018-06-07T14:45:50.358Z,63.10
2018-06-07T14:48:24.554Z,63.00
2018-06-07T14:50:58.473Z,66.70
2018-06-07T14:53:33.385Z,61.40
2018-06-07T14:56:07.417Z,58.90
2018-06-07T14:58:41.462Z,60.40
2018-06-07T15:01:15.442Z,57.10
2018-06-07T15:03:50.265Z,63.30
2018-06-07T15:06:24.546Z,63.30
2018-06-07T15:08:58.626Z,55.70
2018-06-07T15:11:32.554Z,55.60
2018-06-07T15:14:06.755Z,58.00
2018-06-07T15:16:41.777Z,52.90
2018-06-07T15:19:16.698Z,52.90
2018-06-07T15:21:50.714Z,55.60
2018-06-07T15:24:24.909Z,53.70
2018-06-07T15:26:59.021Z,52.10
2018-06-07T15:29:33.074Z,49.50
2018-06-07T15:32:07.394Z,50.60
2018-06-07T15:34:41.598Z,51.50
2018-06-07T15:37:15.910Z,50.10
2018-06-07T15:39:50.151Z,52.10
2018-06-07T15:42:24.055Z,50.80
2018-06-07T15:44:57.984Z,48.60
2018-06-07T15:47:32.037Z,47.30
2018-06-07T15:50:07.477Z,51.00
2018-06-07T15:52:41.719Z,51.00
2018-06-07T15:55:15.780Z,51.80
2018-06-07T15:57:49.965Z,54.00
2018-06-07T16:00:24.430Z,53.10
2018-06-07T16:02:58.333Z,48.50
2018-06-07T16:05:32.547Z,48.00
2018-06-07T16:08:06.447Z,47.40
2018-06-07T16:10:40.512Z,47.80
2018-06-07T16:13:14.797Z,46.80
2018-06-07T16:15:49.018Z,44.70
2018-06-07T16:18:23.202Z,46.80
2018-06-07T16:20:57.269Z,44.80
2018-06-07T16:23:31.473Z,45.70
2018-06-07T16:26:05.526Z,47.50
2018-06-07T16:28:40.201Z,46.70
2018-06-07T16:31:14.987Z,45.60
2018-06-07T16:33:49.986Z,45.50
2018-06-07T16:36:24.854Z,48.20
2018-06-07T16:38:59.183Z,48.20
2018-06-07T16:41:33.136Z,53.50
2018-06-07T16:44:07.192Z,58.00
2018-06-07T16:46:42.162Z,59.30
2018-06-07T16:49:16.886Z,64.90
2018-06-07T16:51:51.049Z,64.80
2018-06-07T16:54:25.194Z,67.70
2018-06-07T16:56:59.321Z,66.40
2018-06-07T16:59:33.314Z,63.90
2018-06-07T17:02:07.352Z,65.40
2018-06-07T17:04:43.263Z,62.60
2018-06-07T17:07:17.263Z,62.60
2018-06-07T17:09:51.371Z,63.60
2018-06-07T17:12:25.584Z,64.10
2018-06-07T17:14:59.774Z,63.10
2018-06-07T17:17:34.740Z,61.60
2018-06-07T17:20:11.696Z,61.80
2018-06-07T17:22:47.449Z,60.60
2018-06-07T17:25:22.159Z,58.50
2018-06-07T17:27:58.815Z,60.50
2018-06-07T17:30:33.245Z,59.30
2018-06-07T17:33:09.105Z,58.90
2018-06-07T17:35:46.882Z,62.30
2018-06-07T17:38:21.643Z,62.20
2018-06-07T17:40:57.579Z,62.70
2018-06-07T17:43:32.552Z,62.80
2018-06-07T17:46:07.560Z,61.30
2018-06-07T17:48:41.526Z,61.30
2018-06-07T17:51:15.649Z,61.60
2018-06-07T17:53:49.785Z,60.40
2018-06-07T17:56:24.232Z,61.00
2018-06-07T17:58:59.400Z,62.60
2018-06-07T18:01:33.587Z,62.60
2018-06-07T18:04:08.005Z,62.50
2018-06-07T18:06:42.085Z,63.30
2018-06-07T18:09:16.025Z,64.10
2018-06-07T18:11:50.166Z,63.40
2018-06-07T18:14:24.710Z,61.90
2018-06-07T18:16:59.759Z,63.80
2018-06-07T18:19:34.912Z,60.20
2018-06-07T18:22:09.815Z,62.90
2018-06-07T18:24:44.861Z,62.40
2018-06-07T18:27:19.471Z,62.50
2018-06-07T18:29:53.847Z,64.70
2018-06-07T18:32:28.834Z,65.80
2018-06-07T18:35:03.507Z,65.90
2018-06-07T18:37:38.119Z,67.80
2018-06-07T18:40:12.268Z,67.60
2018-06-07T18:42:46.765Z,67.30
2018-06-07T18:45:20.715Z,69.00
2018-06-07T18:47:54.913Z,70.40
2018-06-07T18:50:28.961Z,70.70
2018-06-07T18:53:03.066Z,75.90
2018-06-07T18:55:37.433Z,69.80
2018-06-07T18:58:11.659Z,79.20
2018-06-07T19:00:46.080Z,80.10
2018-06-07T19:03:20.521Z,76.50
2018-06-07T19:05:54.756Z,77.50
2018-06-07T19:08:29.035Z,78.60
2018-06-07T19:11:03.971Z,75.60
2018-06-07T19:13:38.139Z,74.60
2018-06-07T19:16:13.034Z,81.30
2018-06-07T19:18:47.219Z,81.20
2018-06-07T19:21:21.311Z,81.90
2018-06-07T19:23:56.440Z,85.70
2018-06-07T19:26:30.696Z,89.80
2018-06-07T19:29:04.798Z,93.60
2018-06-07T19:31:38.794Z,95.10
2018-06-07T19:34:12.946Z,92.40
2018-06-07T19:36:47.383Z,93.20
2018-06-07T19:39:24.154Z,93.50
2018-06-07T19:41:58.977Z,95.80
2018-06-07T19:44:32.897Z,95.70
2018-06-07T19:47:07.283Z,97.20
2018-06-07T19:49:41.805Z,95.10
2018-06-07T19:52:16.239Z,95.80
2018-06-07T19:54:51.360Z,96.20
2018-06-07T19:57:25.456Z,96.20
2018-06-07T19:59:59.565Z,96.20
2018-06-07T20:02:33.925Z,96.40
2018-06-07T20:05:08.135Z,98.00
2018-06-07T20:07:42.089Z,99.90
2018-06-07T20:10:16.226Z,99.90
2018-06-07T20:12:50.270Z,99.90
2018-06-07T20:15:24.336Z,99.90
2018-06-07T20:17:58.589Z,99.90
2018-06-07T20:20:33.279Z,99.90
2018-06-07T20:23:14.570Z,99.90
2018-06-07T20:28:27.760Z,99.90
2018-06-07T20:31:02.578Z,99.90
2018-06-07T20:33:36.514Z,99.90
2018-06-07T20:36:11.083Z,99.90
2018-06-07T20:38:45.429Z,99.90
2018-06-07T20:41:19.854Z,99.90
2018-06-07T20:43:54.283Z,99.90
2018-06-07T20:46:29.281Z,99.90
2018-06-07T20:49:03.509Z,99.90
2018-06-07T20:51:37.507Z,99.90
2018-06-07T20:54:11.669Z,99.90
2018-06-07T20:56:45.830Z,99.90
2018-06-07T20:59:20.022Z,99.90
2018-06-07T21:01:54.149Z,99.90
2018-06-07T21:04:28.534Z,99.90
2018-06-07T21:07:02.485Z,99.90
2018-06-07T21:09:37.358Z,99.90
2018-06-07T21:12:11.569Z,99.90
2018-06-07T21:14:46.372Z,99.90
2018-06-07T21:17:20.933Z,99.90
2018-06-07T21:19:54.944Z,99.90
2018-06-07T21:22:29.065Z,99.90
2018-06-07T21:25:03.428Z,99.90
2018-06-07T21:27:37.457Z,99.90
2018-06-07T21:30:11.501Z,99.90
2018-06-07T21:32:46.378Z,99.90
2018-06-07T21:35:20.992Z,99.90
2018-06-07T21:37:55.073Z,99.90
2018-06-07T21:40:29.084Z,99.90
2018-06-07T21:43:03.166Z,99.90
2018-06-07T21:45:37.295Z,99.90
2018-06-07T21:48:11.472Z,99.90
2018-06-07T21:50:46.290Z,99.90
2018-06-07T21:53:20.417Z,99.90
2018-06-07T21:55:54.393Z,99.90
2018-06-07T21:58:29.296Z,99.90
2018-06-07T22:01:03.430Z,99.90
2018-06-07T22:03:37.438Z,99.90
2018-06-07T22:06:11.516Z,99.90
2018-06-07T22:08:45.601Z,99.90
2018-06-07T22:11:19.713Z,99.90
2018-06-07T22:13:53.692Z,99.90
2018-06-07T22:16:27.742Z,99.90
2018-06-07T22:19:02.731Z,99.90
2018-06-07T22:21:36.893Z,99.90
2018-06-07T22:24:11.134Z,99.90
2018-06-07T22:26:45.345Z,99.90
2018-06-07T22:29:19.416Z,99.90
2018-06-07T22:31:53.533Z,99.90
2018-06-07T22:34:27.478Z,99.90
2018-06-07T22:37:02.318Z,99.90
2018-06-07T22:39:36.201Z,99.90
2018-06-07T22:42:10.369Z,99.90
2018-06-07T22:44:44.453Z,99.90
2018-06-07T22:47:18.434Z,99.90
2018-06-07T22:49:52.429Z,99.90
2018-06-07T22:52:26.641Z,99.90
2018-06-07T22:55:00.798Z,99.90
2018-06-07T22:57:34.987Z,99.90
2018-06-07T23:00:09.241Z,99.90
2018-06-07T23:02:44.150Z,99.90
2018-06-07T23:05:18.240Z,99.90
2018-06-07T23:07:52.272Z,99.90
2018-06-07T23:10:26.513Z,99.90
2018-06-07T23:13:00.480Z,99.90
2018-06-07T23:15:35.317Z,99.90
2018-06-07T23:18:10.057Z,99.90
2018-06-07T23:20:44.162Z,99.90
2018-06-07T23:23:18.925Z,99.90
2018-06-07T23:25:53.018Z,99.90
2018-06-07T23:28:26.943Z,99.90
2018-06-07T23:31:01.042Z,99.90
2018-06-07T23:33:35.162Z,99.90
2018-06-07T23:36:09.246Z,99.90
2018-06-07T23:38:44.209Z,99.90
2018-06-07T23:41:18.179Z,99.90
2018-06-07T23:43:52.189Z,99.90
2018-06-07T23:46:26.209Z,99.90
2018-06-07T23:49:00.271Z,99.90
2018-06-07T23:51:34.447Z,99.90
2018-06-07T23:54:08.346Z,99.90
2018-06-07T23:56:42.453Z,99.90
2018-06-07T23:59:16.431Z,99.90
